Time;durP1;ratioP1;P1;durP2;ratioP2;P2;SDS_P1;SDS_P2;PMS_P1;PMS_P2;Temp;Humidity;BMP_temperature;BMP_pressure;BME280_temperature;BME280_humidity;BME280_pressure;Samples;Min_cycle;Max_cycle;Signal;HPM_P1;HPM_P2
2023/08/29 00:00:15;;;;;;;4.47;2.38;;;11.20;99.90;;;;;;5035444;28;20055;-63
2023/08/29 00:02:41;;;;;;;2.88;2.08;;;11.30;99.90;;;;;;5034335;28;20033;-62
2023/08/29 00:05:08;;;;;;;4.22;2.42;;;11.20;99.90;;;;;;5020183;28;20091;-64
2023/08/29 00:07:33;;;;;;;3.92;2.70;;;11.20;99.90;;;;;;5046759;28;20033;-62
2023/08/29 00:09:59;;;;;;;5.10;2.60;;;11.20;99.90;;;;;;5049024;28;20354;-63
2023/08/29 00:12:25;;;;;;;3.67;2.88;;;11.20;99.90;;;;;;5035952;28;20121;-63
2023/08/29 00:14:50;;;;;;;4.93;2.42;;;11.10;99.90;;;;;;5007735;28;20053;-64
2023/08/29 00:17:16;;;;;;;5.70;2.50;;;11.10;99.90;;;;;;5028870;28;20557;-63
2023/08/29 00:19:42;;;;;;;4.32;2.50;;;11.00;99.90;;;;;;5047597;28;20033;-62
2023/08/29 00:22:07;;;;;;;5.63;2.83;;;11.00;99.90;;;;;;5047049;28;20744;-62
2023/08/29 00:24:33;;;;;;;5.47;2.50;;;11.00;99.90;;;;;;5029448;28;20192;-62
2023/08/29 00:26:58;;;;;;;5.90;3.13;;;11.00;99.90;;;;;;5040852;28;20033;-62
2023/08/29 00:29:26;;;;;;;4.55;2.80;;;11.00;99.90;;;;;;5035119;28;20039;-62
2023/08/29 00:31:52;;;;;;;3.90;2.70;;;11.00;99.90;;;;;;5025888;28;20144;-61
2023/08/29 00:34:17;;;;;;;3.40;2.50;;;11.00;99.90;;;;;;5049842;28;20123;-63
2023/08/29 00:36:43;;;;;;;5.07;2.53;;;11.00;99.90;;;;;;5033802;28;20033;-62
2023/08/29 00:39:08;;;;;;;4.78;2.72;;;10.90;99.90;;;;;;5047129;28;20103;-62
2023/08/29 00:41:34;;;;;;;4.13;2.70;;;10.90;99.90;;;;;;5045965;28;20068;-63
2023/08/29 00:43:59;;;;;;;3.53;2.45;;;10.90;99.90;;;;;;5039220;28;20041;-62
2023/08/29 00:46:26;;;;;;;4.43;2.67;;;10.80;99.90;;;;;;5031398;28;20489;-63
2023/08/29 00:48:52;;;;;;;4.13;2.63;;;10.80;99.90;;;;;;5035237;28;20041;-63
2023/08/29 00:51:17;;;;;;;4.35;2.70;;;10.80;99.90;;;;;;5048273;28;20053;-63
2023/08/29 00:53:44;;;;;;;3.33;2.30;;;10.80;99.90;;;;;;5034805;28;20049;-63
2023/08/29 00:56:12;;;;;;;3.75;2.72;;;10.70;99.90;;;;;;5045429;28;20449;-62
2023/08/29 00:58:37;;;;;;;4.88;2.63;;;10.70;99.90;;;;;;5046432;28;20118;-63
2023/08/29 01:01:03;;;;;;;3.58;2.83;;;10.60;99.90;;;;;;5030718;28;20083;-62
2023/08/29 01:03:29;;;;;;;4.10;2.75;;;10.70;99.90;;;;;;5038486;28;20044;-62
2023/08/29 01:05:55;;;;;;;4.80;2.90;;;10.70;99.90;;;;;;5031422;28;20048;-62
2023/08/29 01:08:20;;;;;;;5.22;2.80;;;10.70;99.90;;;;;;5045606;28;20052;-62
2023/08/29 01:11:05;;;;;;;5.35;3.13;;;10.70;99.90;;;;;;5018267;28;20037;-62
2023/08/29 01:13:44;;;;;;;6.43;2.65;;;10.80;99.90;;;;;;5032644;28;20040;-63
2023/08/29 01:16:12;;;;;;;5.28;3.38;;;10.80;99.90;;;;;;5011952;28;20402;-61
2023/08/29 01:18:38;;;;;;;3.60;2.20;;;10.80;99.90;;;;;;5033888;28;20044;-62
2023/08/29 01:21:22;;;;;;;5.90;3.00;;;10.80;99.90;;;;;;5039497;28;20067;-63
2023/08/29 01:23:57;;;;;;;4.45;3.00;;;10.80;99.90;;;;;;5044020;28;20120;-62
2023/08/29 01:26:25;;;;;;;4.78;2.53;;;10.80;99.90;;;;;;5054444;28;20441;-62
2023/08/29 01:28:50;;;;;;;4.05;2.47;;;10.80;99.90;;;;;;5027456;28;20045;-63
2023/08/29 01:31:18;;;;;;;4.95;2.97;;;10.80;99.90;;;;;;5019196;28;20040;-63
2023/08/29 01:33:44;;;;;;;3.85;2.63;;;10.80;99.90;;;;;;5037331;28;20052;-62
2023/08/29 01:36:10;;;;;;;4.40;2.60;;;10.80;99.90;;;;;;5035296;28;20101;-62
2023/08/29 01:38:36;;;;;;;3.83;2.58;;;10.80;99.90;;;;;;5043630;28;20115;-63
2023/08/29 01:41:02;;;;;;;5.00;2.38;;;10.70;99.90;;;;;;5033066;28;20037;-61
2023/08/29 01:43:27;;;;;;;5.15;2.90;;;10.70;99.90;;;;;;5050717;28;20044;-62
2023/08/29 01:45:53;;;;;;;5.18;2.80;;;10.70;99.90;;;;;;5027737;28;20041;-62
2023/08/29 01:48:18;;;;;;;5.28;2.70;;;10.60;99.90;;;;;;5040562;28;20043;-63
2023/08/29 01:50:45;;;;;;;4.50;2.38;;;10.70;99.90;;;;;;5044878;28;20470;-61
2023/08/29 01:53:11;;;;;;;6.25;2.53;;;10.60;99.90;;;;;;5033988;28;20374;-62
2023/08/29 01:55:38;;;;;;;4.15;1.85;;;10.60;99.90;;;;;;5044760;28;20056;-63
2023/08/29 01:58:05;;;;;;;4.05;2.42;;;10.60;99.90;;;;;;5038262;28;20064;-62
2023/08/29 02:00:31;;;;;;;4.22;2.40;;;10.50;99.90;;;;;;5040066;28;20024;-62
2023/08/29 02:02:57;;;;;;;3.78;2.00;;;10.50;99.90;;;;;;5044380;28;20131;-62
2023/08/29 02:05:23;;;;;;;4.63;2.50;;;10.40;99.90;;;;;;5039684;28;20029;-62
2023/08/29 02:07:49;;;;;;;4.47;2.40;;;10.40;99.90;;;;;;5039740;28;20454;-62
2023/08/29 02:10:15;;;;;;;3.63;2.28;;;10.40;99.90;;;;;;5028404;28;20460;-62
2023/08/29 02:12:41;;;;;;;5.90;2.25;;;10.30;99.90;;;;;;5046123;28;20159;-62
2023/08/29 02:15:08;;;;;;;4.47;2.25;;;10.30;99.90;;;;;;5027335;28;20045;-62
2023/08/29 02:17:33;;;;;;;5.13;2.17;;;10.30;99.90;;;;;;5037818;28;20427;-62
2023/08/29 02:19:59;;;;;;;7.60;2.55;;;10.30;99.90;;;;;;5045374;28;20148;-62
2023/08/29 02:22:25;;;;;;;3.50;2.53;;;10.30;99.90;;;;;;5029553;28;20128;-62
2023/08/29 02:24:50;;;;;;;3.65;2.40;;;10.30;99.90;;;;;;5028834;28;20112;-63
2023/08/29 02:27:16;;;;;;;3.05;2.28;;;10.30;99.90;;;;;;5042339;28;20040;-63
2023/08/29 02:29:41;;;;;;;9.85;2.80;;;10.30;99.90;;;;;;5030886;28;20037;-62
2023/08/29 02:32:07;;;;;;;4.25;2.00;;;10.30;99.90;;;;;;5044770;28;20041;-62
2023/08/29 02:34:33;;;;;;;2.58;2.20;;;10.30;99.90;;;;;;5040259;28;20426;-62
2023/08/29 02:36:58;;;;;;;4.95;2.22;;;10.30;99.90;;;;;;5049107;28;20089;-62
2023/08/29 02:39:24;;;;;;;4.45;2.53;;;10.20;99.90;;;;;;5041540;28;20052;-62
2023/08/29 02:41:49;;;;;;;4.93;2.50;;;10.20;99.90;;;;;;5031794;28;20481;-64
2023/08/29 02:44:15;;;;;;;2.88;2.05;;;10.20;99.90;;;;;;5040947;28;20722;-62
2023/08/29 02:46:41;;;;;;;4.88;2.33;;;10.20;99.90;;;;;;5037678;28;20044;-62
2023/08/29 02:49:06;;;;;;;3.30;2.20;;;10.20;99.90;;;;;;5034389;28;20075;-63
2023/08/29 02:51:32;;;;;;;4.32;2.20;;;10.20;99.90;;;;;;5032837;28;20563;-62
2023/08/29 02:53:58;;;;;;;4.40;2.30;;;10.20;99.90;;;;;;5028941;28;20077;-62
2023/08/29 02:56:23;;;;;;;3.50;2.00;;;10.10;99.90;;;;;;5029081;28;20485;-62
2023/08/29 02:58:52;;;;;;;4.72;2.08;;;10.10;99.90;;;;;;5026532;28;20157;-64
2023/08/29 03:01:17;;;;;;;6.40;2.40;;;10.10;99.90;;;;;;5035566;28;20124;-62
2023/08/29 03:03:43;;;;;;;3.50;2.05;;;10.10;99.90;;;;;;5041996;28;20132;-62
2023/08/29 03:06:08;;;;;;;4.70;2.40;;;10.10;99.90;;;;;;5038034;28;20041;-62
2023/08/29 03:08:34;;;;;;;3.28;2.30;;;10.10;99.90;;;;;;5027229;28;20483;-62
2023/08/29 03:11:05;;;;;;;6.07;2.30;;;10.10;99.90;;;;;;5027815;28;20029;-62
2023/08/29 03:13:31;;;;;;;3.50;2.20;;;10.10;99.90;;;;;;5038111;28;20045;-64
2023/08/29 03:16:00;;;;;;;3.95;2.00;;;10.10;99.90;;;;;;5031109;28;20044;-62
2023/08/29 03:18:27;;;;;;;3.55;2.15;;;10.10;99.90;;;;;;5031840;28;20083;-63
2023/08/29 03:20:52;;;;;;;4.00;2.13;;;10.10;99.90;;;;;;5032580;28;20052;-62
2023/08/29 03:23:18;;;;;;;6.45;2.00;;;10.00;99.90;;;;;;5017791;28;20033;-62
2023/08/29 03:25:44;;;;;;;5.13;2.38;;;10.00;99.90;;;;;;5046731;28;20105;-63
2023/08/29 03:28:09;;;;;;;3.80;2.30;;;10.00;99.90;;;;;;5033688;28;20084;-62
2023/08/29 03:30:35;;;;;;;4.05;2.35;;;10.00;99.90;;;;;;5037605;28;20051;-62
2023/08/29 03:33:01;;;;;;;5.82;2.35;;;10.00;99.90;;;;;;5040682;28;20473;-62
2023/08/29 03:35:26;;;;;;;3.95;2.15;;;10.00;99.90;;;;;;5037521;28;20049;-62
2023/08/29 03:37:52;;;;;;;3.85;2.00;;;9.90;99.90;;;;;;5034261;28;20045;-63
2023/08/29 03:40:18;;;;;;;3.80;2.10;;;9.90;99.90;;;;;;5019483;28;20043;-62
2023/08/29 03:42:43;;;;;;;2.65;1.65;;;9.90;99.90;;;;;;5030096;28;20131;-64
2023/08/29 03:45:09;;;;;;;4.32;1.98;;;9.90;99.90;;;;;;5030770;28;20441;-61
2023/08/29 03:47:37;;;;;;;2.72;2.00;;;9.90;99.90;;;;;;5047884;28;20033;-63
2023/08/29 03:50:03;;;;;;;2.97;1.83;;;9.80;99.90;;;;;;5045140;28;20052;-63
2023/08/29 03:52:29;;;;;;;2.50;1.77;;;9.80;99.90;;;;;;5049078;28;20045;-61
2023/08/29 03:54:55;;;;;;;2.70;1.80;;;9.80;99.90;;;;;;5038587;28;20079;-62
2023/08/29 03:57:22;;;;;;;2.55;1.67;;;9.70;99.90;;;;;;5042420;28;20453;-62
2023/08/29 03:59:48;;;;;;;5.25;2.80;;;9.70;99.90;;;;;;5036558;28;20037;-62
2023/08/29 04:02:14;;;;;;;4.15;1.90;;;9.80;99.90;;;;;;5030120;28;20334;-63
2023/08/29 04:04:39;;;;;;;3.60;2.60;;;9.80;99.90;;;;;;5040694;28;20128;-62
2023/08/29 04:07:05;;;;;;;3.53;2.28;;;9.80;99.90;;;;;;5026762;28;20051;-63
2023/08/29 04:09:31;;;;;;;3.03;2.08;;;9.80;99.90;;;;;;5045719;28;20091;-63
2023/08/29 04:11:57;;;;;;;5.15;2.30;;;9.80;99.90;;;;;;5052908;28;20099;-62
2023/08/29 04:14:23;;;;;;;3.83;2.35;;;9.70;99.90;;;;;;5047877;28;20037;-62
2023/08/29 04:16:48;;;;;;;6.20;2.38;;;9.70;99.90;;;;;;5024129;28;20045;-62
2023/08/29 04:19:14;;;;;;;3.45;2.08;;;9.70;99.90;;;;;;5048676;28;20055;-62
2023/08/29 04:21:40;;;;;;;3.63;2.10;;;9.60;99.90;;;;;;5046070;28;20473;-62
2023/08/29 04:24:06;;;;;;;4.65;2.42;;;9.60;99.90;;;;;;5034051;28;20082;-62
2023/08/29 04:26:32;;;;;;;3.60;2.50;;;9.60;99.90;;;;;;5036209;28;20410;-61
2023/08/29 04:28:58;;;;;;;5.13;2.33;;;9.70;99.90;;;;;;5048385;28;20045;-63
2023/08/29 04:31:23;;;;;;;4.60;2.50;;;9.70;99.90;;;;;;5040607;28;20064;-61
2023/08/29 04:33:49;;;;;;;4.50;2.75;;;9.70;99.90;;;;;;5030934;28;20327;-62
2023/08/29 04:36:17;;;;;;;3.42;2.28;;;9.70;99.90;;;;;;5036811;28;20041;-62
2023/08/29 04:38:45;;;;;;;5.13;2.40;;;9.70;99.90;;;;;;5025232;28;20033;-63
2023/08/29 04:41:11;;;;;;;5.72;2.45;;;9.70;99.90;;;;;;5032045;28;20053;-62
2023/08/29 04:43:38;;;;;;;3.78;2.35;;;9.70;99.90;;;;;;5047753;28;20036;-62
2023/08/29 04:46:03;;;;;;;5.00;2.67;;;9.60;99.90;;;;;;5045633;28;20043;-62
2023/08/29 04:48:29;;;;;;;4.78;2.65;;;9.50;99.90;;;;;;5035888;28;20044;-62
2023/08/29 04:50:55;;;;;;;3.35;2.50;;;9.50;99.90;;;;;;5031943;28;20437;-62
2023/08/29 04:53:21;;;;;;;4.97;2.83;;;9.50;99.90;;;;;;5038301;28;20041;-63
2023/08/29 04:55:47;;;;;;;5.10;2.38;;;9.50;99.90;;;;;;5028548;28;20037;-63
2023/08/29 04:58:12;;;;;;;5.10;2.42;;;9.50;99.90;;;;;;5039614;28;20369;-62
2023/08/29 05:00:38;;;;;;;4.85;2.80;;;9.50;99.90;;;;;;5041516;28;20033;-63
2023/08/29 05:03:04;;;;;;;4.00;2.47;;;9.60;99.90;;;;;;5041916;28;20188;-62
2023/08/29 05:05:30;;;;;;;4.63;2.72;;;9.60;99.90;;;;;;5040555;28;20048;-62
2023/08/29 05:07:56;;;;;;;7.25;2.95;;;9.60;99.90;;;;;;5021024;28;20048;-63
2023/08/29 05:10:22;;;;;;;4.82;2.67;;;9.50;99.90;;;;;;5042298;28;20037;-62
2023/08/29 05:12:48;;;;;;;4.63;2.78;;;9.60;99.90;;;;;;5047426;28;20048;-62
2023/08/29 05:15:14;;;;;;;6.20;3.40;;;9.60;99.90;;;;;;5046087;28;20044;-62
2023/08/29 05:17:40;;;;;;;4.68;2.67;;;9.70;99.90;;;;;;5031639;28;20353;-62
2023/08/29 05:20:09;;;;;;;5.43;3.00;;;9.60;99.90;;;;;;5032527;28;20040;-62
2023/08/29 05:22:35;;;;;;;4.53;2.85;;;9.60;99.90;;;;;;5032545;28;20063;-63
2023/08/29 05:25:01;;;;;;;5.07;2.75;;;9.60;99.90;;;;;;5034689;28;20057;-62
2023/08/29 05:27:26;;;;;;;4.10;2.38;;;9.60;99.90;;;;;;5050970;28;20044;-63
2023/08/29 05:29:52;;;;;;;6.90;2.55;;;9.60;99.90;;;;;;5031138;28;20049;-62
2023/08/29 05:32:17;;;;;;;4.22;2.80;;;9.60;99.90;;;;;;5015721;28;20047;-62
2023/08/29 05:34:43;;;;;;;5.63;3.17;;;9.60;99.90;;;;;;5030894;28;20041;-65
2023/08/29 05:37:08;;;;;;;4.05;2.60;;;9.60;99.90;;;;;;5035609;28;20530;-61
2023/08/29 05:39:34;;;;;;;4.57;2.60;;;9.70;99.90;;;;;;5041126;28;20047;-62
2023/08/29 05:42:02;;;;;;;4.07;2.70;;;9.70;99.90;;;;;;5044258;28;20088;-62
2023/08/29 05:44:28;;;;;;;5.15;3.00;;;9.70;99.90;;;;;;5029681;28;20457;-65
2023/08/29 05:46:53;;;;;;;5.97;2.83;;;9.80;99.90;;;;;;5034755;28;20044;-63
2023/08/29 05:49:19;;;;;;;5.70;3.28;;;9.80;99.90;;;;;;5034643;28;20052;-62
2023/08/29 05:51:45;;;;;;;5.63;3.03;;;9.90;99.90;;;;;;4977460;28;1456377;-62
2023/08/29 05:54:10;;;;;;;8.63;3.10;;;9.90;99.90;;;;;;5036905;28;20068;-62
2023/08/29 05:56:37;;;;;;;4.30;2.42;;;9.90;99.90;;;;;;5027416;28;20532;-62
2023/08/29 05:59:02;;;;;;;4.97;2.80;;;10.00;99.90;;;;;;5027915;28;20076;-63
2023/08/29 06:01:28;;;;;;;6.35;3.17;;;10.00;99.90;;;;;;5038383;28;20076;-63
2023/08/29 06:03:53;;;;;;;5.78;3.03;;;10.00;99.90;;;;;;5044357;28;20041;-62
2023/08/29 06:06:19;;;;;;;6.57;3.00;;;10.10;99.90;;;;;;5037795;28;20044;-62
2023/08/29 06:08:46;;;;;;;4.65;3.20;;;10.10;99.90;;;;;;5036913;28;20101;-64
2023/08/29 06:11:12;;;;;;;10.18;3.38;;;10.10;99.90;;;;;;5048521;28;20044;-63
2023/08/29 06:13:37;;;;;;;7.35;3.08;;;10.30;99.90;;;;;;5042821;28;20040;-62
2023/08/29 06:16:03;;;;;;;5.93;2.95;;;10.30;99.90;;;;;;5027178;28;20091;-62
2023/08/29 06:18:29;;;;;;;5.70;3.03;;;10.40;99.90;;;;;;5046900;28;20037;-62
2023/08/29 06:20:54;;;;;;;4.70;2.63;;;10.40;99.90;;;;;;5015359;28;20649;-63
2023/08/29 06:23:20;;;;;;;4.68;3.10;;;10.50;99.90;;;;;;5036866;28;20579;-64
2023/08/29 06:25:47;;;;;;;7.30;2.97;;;10.60;99.90;;;;;;5034752;28;20118;-62
2023/08/29 06:28:13;;;;;;;5.35;3.45;;;10.70;99.90;;;;;;5030475;28;20049;-63
2023/08/29 06:30:38;;;;;;;6.30;3.58;;;10.80;99.90;;;;;;5028131;28;20037;-62
2023/08/29 06:33:06;;;;;;;5.93;3.08;;;11.00;99.90;;;;;;5037503;28;20048;-65
2023/08/29 06:35:35;;;;;;;6.63;2.88;;;11.10;99.90;;;;;;5042712;28;20045;-64
2023/08/29 06:38:01;;;;;;;7.93;3.20;;;11.30;99.90;;;;;;5042479;28;20044;-64
2023/08/29 06:40:26;;;;;;;4.28;2.78;;;11.40;99.90;;;;;;5036610;28;20052;-63
2023/08/29 06:42:52;;;;;;;6.10;3.22;;;11.70;99.90;;;;;;5037639;28;20107;-63
2023/08/29 06:45:18;;;;;;;5.70;3.25;;;11.90;99.90;;;;;;5034677;28;20052;-63
2023/08/29 06:47:43;;;;;;;7.57;3.50;;;12.20;99.90;;;;;;5029482;28;20076;-63
2023/08/29 06:50:09;;;;;;;6.75;3.15;;;12.50;99.90;;;;;;5028211;28;20044;-64
2023/08/29 06:52:34;;;;;;;4.18;2.38;;;12.70;99.90;;;;;;5032995;28;20375;-63
2023/08/29 06:55:01;;;;;;;4.35;2.50;;;13.10;99.90;;;;;;5013120;28;20136;-62
2023/08/29 06:57:26;;;;;;;4.85;2.72;;;13.30;99.90;;;;;;5031555;28;20048;-65
2023/08/29 06:59:52;;;;;;;4.72;2.58;;;13.60;99.90;;;;;;5039404;28;20052;-63
2023/08/29 07:02:18;;;;;;;2.42;2.10;;;14.00;99.90;;;;;;5037887;28;20044;-63
2023/08/29 07:04:44;;;;;;;3.17;1.95;;;14.30;99.90;;;;;;5048423;28;20040;-65
2023/08/29 07:07:09;;;;;;;3.88;1.92;;;14.60;99.90;;;;;;5036111;28;20041;-63
2023/08/29 07:09:35;;;;;;;2.78;2.03;;;14.90;99.90;;;;;;5031186;28;20419;-64
2023/08/29 07:12:00;;;;;;;3.20;2.10;;;15.30;99.90;;;;;;5026489;28;20037;-65
2023/08/29 07:14:26;;;;;;;4.20;2.13;;;15.70;99.90;;;;;;5021685;28;20069;-64
2023/08/29 07:16:52;;;;;;;2.88;1.85;;;15.80;99.90;;;;;;5038196;28;20390;-64
2023/08/29 07:19:17;;;;;;;2.53;1.65;;;16.20;99.90;;;;;;5027332;28;20055;-63
2023/08/29 07:21:44;;;;;;;2.97;1.17;;;16.50;99.90;;;;;;5032532;28;20465;-64
2023/08/29 07:24:09;;;;;;;4.47;1.50;;;16.70;99.90;;;;;;5035177;28;20362;-63
2023/08/29 07:26:35;;;;;;;3.28;1.27;;;17.10;99.90;;;;;;5039368;28;20079;-64
2023/08/29 07:29:00;;;;;;;2.28;0.93;;;17.30;99.90;;;;;;5034482;28;20622;-64
2023/08/29 07:31:26;;;;;;;1.95;1.00;;;17.50;99.90;;;;;;5039338;28;20109;-67
2023/08/29 07:33:52;;;;;;;2.38;0.75;;;17.70;99.90;;;;;;5048748;28;20041;-67
2023/08/29 07:36:17;;;;;;;3.28;0.90;;;17.90;99.90;;;;;;5038105;28;20051;-66
2023/08/29 07:38:43;;;;;;;2.53;0.70;;;18.10;99.90;;;;;;5040209;28;20065;-66
2023/08/29 07:41:08;;;;;;;0.82;0.50;;;18.10;99.90;;;;;;5046329;28;20036;-66
2023/08/29 07:43:34;;;;;;;1.75;0.70;;;18.20;99.90;;;;;;5031119;28;20037;-66
2023/08/29 07:46:00;;;;;;;1.25;0.50;;;18.40;99.90;;;;;;5025079;28;20049;-67
2023/08/29 07:48:25;;;;;;;1.65;0.70;;;18.50;99.90;;;;;;5034826;28;20512;-67
2023/08/29 07:50:51;;;;;;;2.33;0.50;;;18.70;99.90;;;;;;5044338;28;20430;-67
2023/08/29 07:53:17;;;;;;;1.13;0.57;;;18.80;99.90;;;;;;5048267;28;20456;-67
2023/08/29 07:55:44;;;;;;;1.38;0.50;;;18.90;99.90;;;;;;5047881;28;20120;-67
2023/08/29 07:58:10;;;;;;;0.75;0.50;;;18.80;99.90;;;;;;5043229;28;20587;-67
2023/08/29 08:00:36;;;;;;;2.78;0.47;;;19.10;99.90;;;;;;5019317;28;20044;-67
2023/08/29 08:03:03;;;;;;;1.42;0.60;;;19.10;99.90;;;;;;5038364;28;20053;-67
2023/08/29 08:05:28;;;;;;;2.53;0.63;;;19.40;99.90;;;;;;5031553;28;20072;-67
2023/08/29 08:07:55;;;;;;;0.90;0.50;;;19.60;99.90;;;;;;5031074;28;20072;-67
2023/08/29 08:10:21;;;;;;;0.93;0.55;;;19.50;99.90;;;;;;5028553;28;20042;-68
2023/08/29 08:12:47;;;;;;;2.00;0.70;;;19.50;99.90;;;;;;5028030;28;20381;-68
2023/08/29 08:15:13;;;;;;;0.73;0.43;;;19.60;99.90;;;;;;5027127;28;20037;-68
2023/08/29 08:17:40;;;;;;;1.63;0.45;;;19.60;99.90;;;;;;5034911;28;20051;-68
2023/08/29 08:20:09;;;;;;;1.73;0.60;;;19.70;99.90;;;;;;5027421;28;20090;-68
2023/08/29 08:22:39;;;;;;;3.70;0.60;;;19.70;99.90;;;;;;5041155;28;20132;-67
2023/08/29 08:25:06;;;;;;;1.23;0.60;;;19.80;99.90;;;;;;5035017;28;20143;-68
2023/08/29 08:27:31;;;;;;;2.55;0.52;;;19.80;99.90;;;;;;5037081;28;20034;-67
2023/08/29 08:29:57;;;;;;;2.65;0.68;;;19.80;99.90;;;;;;5039232;28;20476;-68
2023/08/29 08:32:23;;;;;;;1.98;0.30;;;19.90;98.40;;;;;;5043024;28;20414;-68
2023/08/29 08:34:49;;;;;;;1.55;0.50;;;20.10;96.90;;;;;;5039400;28;20115;-68
2023/08/29 08:37:15;;;;;;;1.70;0.50;;;20.10;95.90;;;;;;5030301;28;20041;-68
2023/08/29 08:39:40;;;;;;;1.45;0.47;;;20.20;95.60;;;;;;5016793;28;20369;-68
2023/08/29 08:42:06;;;;;;;2.47;0.38;;;20.30;94.70;;;;;;5034917;28;20045;-68
2023/08/29 08:44:32;;;;;;;1.45;0.55;;;20.30;94.70;;;;;;5038002;28;20098;-69
2023/08/29 08:46:59;;;;;;;1.63;0.50;;;20.30;94.40;;;;;;5047080;28;20044;-68
2023/08/29 08:49:26;;;;;;;1.65;0.88;;;20.30;94.30;;;;;;5041593;28;20045;-68
2023/08/29 08:51:52;;;;;;;0.50;0.20;;;20.20;94.20;;;;;;5041755;28;20497;-69
2023/08/29 08:54:18;;;;;;;3.40;0.40;;;20.30;93.90;;;;;;5036636;28;20037;-69
2023/08/29 08:56:44;;;;;;;1.85;0.40;;;20.30;93.40;;;;;;5041135;28;20049;-68
2023/08/29 08:59:10;;;;;;;0.68;0.40;;;20.40;93.40;;;;;;5033428;28;20782;-68
2023/08/29 09:01:37;;;;;;;1.58;0.57;;;20.30;93.50;;;;;;5045894;28;20056;-68
2023/08/29 09:04:03;;;;;;;0.93;0.57;;;20.30;92.80;;;;;;5040636;28;20187;-68
2023/08/29 09:06:29;;;;;;;1.08;0.60;;;20.40;92.60;;;;;;5035652;28;20509;-68
2023/08/29 09:09:18;;;;;;;1.02;0.50;;;20.20;92.60;;;;;;5030977;28;20075;-68
2023/08/29 09:11:54;;;;;;;1.85;0.40;;;20.30;92.30;;;;;;5035986;28;20049;-69
2023/08/29 09:14:20;;;;;;;0.90;0.40;;;20.10;91.90;;;;;;5027366;28;20053;-69
2023/08/29 09:16:45;;;;;;;3.22;0.60;;;20.10;91.70;;;;;;5024564;28;20099;-68
2023/08/29 09:19:16;;;;;;;1.85;0.80;;;20.20;91.20;;;;;;5034493;28;20045;-68
2023/08/29 09:21:42;;;;;;;0.70;0.40;;;20.40;90.40;;;;;;5032337;28;20079;-67
2023/08/29 09:24:12;;;;;;;0.52;0.35;;;20.20;89.20;;;;;;5035928;28;20056;-68
2023/08/29 09:26:40;;;;;;;0.93;0.40;;;20.30;89.20;;;;;;5030990;28;20063;-69
2023/08/29 09:29:19;;;;;;;0.77;0.60;;;20.10;90.00;;;;;;5029426;28;20045;-68
2023/08/29 09:31:49;;;;;;;2.15;0.50;;;20.10;89.20;;;;;;5041162;28;20072;-68
2023/08/29 09:34:31;;;;;;;1.42;0.70;;;20.10;90.40;;;;;;5034905;28;20327;-68
2023/08/29 09:36:58;;;;;;;1.98;0.65;;;20.10;90.10;;;;;;5023691;28;20453;-69
2023/08/29 09:39:24;;;;;;;7.95;1.17;;;20.20;87.30;;;;;;5039516;28;21065;-69
2023/08/29 09:42:10;;;;;;;2.85;0.60;;;20.20;87.80;;;;;;5039282;28;20076;-69
2023/08/29 09:44:40;;;;;;;2.20;0.60;;;20.30;86.70;;;;;;5056361;28;20388;-69
2023/08/29 09:47:08;;;;;;;2.75;0.60;;;20.40;86.30;;;;;;5013271;28;20045;-70
2023/08/29 09:50:01;;;;;;;3.00;0.80;;;20.50;86.10;;;;;;5030500;28;20095;-69
2023/08/29 09:52:28;;;;;;;3.20;0.80;;;20.40;89.60;;;;;;5025844;28;20063;-69
2023/08/29 09:54:55;;;;;;;1.35;0.70;;;20.30;87.90;;;;;;5048785;28;20091;-69
2023/08/29 09:57:24;;;;;;;1.33;0.60;;;20.10;89.40;;;;;;5017872;28;20037;-71
2023/08/29 09:59:51;;;;;;;0.82;0.50;;;19.90;89.50;;;;;;5045597;28;20052;-69
2023/08/29 10:02:20;;;;;;;2.80;0.80;;;19.70;89.40;;;;;;5046950;28;20366;-68
2023/08/29 10:04:52;;;;;;;2.53;0.60;;;19.60;90.40;;;;;;5047529;28;20055;-69
2023/08/29 10:07:33;;;;;;;2.92;0.68;;;19.50;90.70;;;;;;5039994;28;20120;-69
2023/08/29 10:09:59;;;;;;;3.17;0.50;;;19.30;91.50;;;;;;5046337;28;20090;-68
2023/08/29 10:12:27;;;;;;;2.08;0.70;;;19.20;91.70;;;;;;5050153;28;20047;-68
2023/08/29 10:14:54;;;;;;;1.00;0.82;;;19.20;92.60;;;;;;5039284;28;20041;-69
2023/08/29 10:17:20;;;;;;;1.10;0.60;;;19.10;92.90;;;;;;5037499;28;20087;-68
2023/08/29 10:19:46;;;;;;;1.40;0.60;;;19.10;93.20;;;;;;5019779;28;20044;-68
2023/08/29 10:22:12;;;;;;;1.50;0.57;;;19.20;93.10;;;;;;5048090;28;20270;-68
2023/08/29 10:24:42;;;;;;;2.65;0.60;;;19.10;92.60;;;;;;5029713;28;20124;-69
2023/08/29 10:27:07;;;;;;;0.97;0.53;;;19.00;93.10;;;;;;5040632;28;20072;-68
2023/08/29 10:29:33;;;;;;;0.82;0.80;;;19.10;92.60;;;;;;5028176;28;20324;-68
2023/08/29 10:32:01;;;;;;;0.85;0.68;;;19.00;92.50;;;;;;5029978;28;20037;-69
2023/08/29 10:34:28;;;;;;;3.50;0.60;;;19.00;92.90;;;;;;5027849;28;20107;-68
2023/08/29 10:36:56;;;;;;;3.70;0.60;;;19.00;93.20;;;;;;5041879;28;20047;-68
2023/08/29 10:39:24;;;;;;;2.60;0.80;;;18.80;93.30;;;;;;5042624;28;20043;-68
2023/08/29 10:41:54;;;;;;;1.25;0.60;;;18.70;93.60;;;;;;5048223;28;20053;-68
2023/08/29 10:44:29;;;;;;;0.80;0.68;;;18.70;93.60;;;;;;5036124;28;20104;-68
2023/08/29 10:47:30;;;;;;;2.03;0.47;;;18.70;92.80;;;;;;5041515;28;20112;-68
2023/08/29 10:50:02;;;;;;;0.93;0.60;;;18.80;93.90;;;;;;5028710;28;20041;-68
2023/08/29 10:52:39;;;;;;;2.13;0.70;;;18.80;93.30;;;;;;5028949;28;20144;-68
2023/08/29 10:55:18;;;;;;;1.88;0.57;;;18.80;92.60;;;;;;5028404;28;20163;-68
2023/08/29 10:57:44;;;;;;;2.65;0.65;;;18.80;91.70;;;;;;5045900;28;20040;-68
2023/08/29 11:00:41;;;;;;;1.92;0.68;;;18.80;91.60;;;;;;5025412;28;20056;-68
2023/08/29 11:03:07;;;;;;;1.98;0.65;;;18.90;92.40;;;;;;5032043;28;20080;-68
2023/08/29 11:05:38;;;;;;;2.30;0.77;;;19.00;91.20;;;;;;5038963;28;20037;-68
2023/08/29 11:08:22;;;;;;;0.98;0.57;;;19.10;90.80;;;;;;5042756;28;20049;-68
2023/08/29 11:11:16;;;;;;;1.17;0.50;;;19.20;90.90;;;;;;5027663;28;20042;-69
2023/08/29 11:13:55;;;;;;;0.77;0.60;;;19.40;90.20;;;;;;5033261;28;20103;-68
2023/08/29 11:16:20;;;;;;;1.00;0.50;;;19.50;89.30;;;;;;5015300;28;20049;-68
2023/08/29 11:18:47;;;;;;;1.42;0.60;;;19.70;87.90;;;;;;5028924;28;20037;-69
2023/08/29 11:21:15;;;;;;;1.17;0.73;;;19.90;87.90;;;;;;5045661;28;20109;-68
2023/08/29 11:23:42;;;;;;;1.30;0.63;;;19.90;89.00;;;;;;5041154;28;20041;-67
2023/08/29 11:26:08;;;;;;;3.42;0.68;;;20.00;87.80;;;;;;5039661;28;20073;-69
2023/08/29 11:28:39;;;;;;;1.77;0.80;;;19.90;86.70;;;;;;5044902;28;20160;-68
2023/08/29 11:31:05;;;;;;;0.95;0.60;;;20.00;87.00;;;;;;5038969;28;20056;-69
2023/08/29 11:33:36;;;;;;;0.60;0.50;;;20.00;85.70;;;;;;5031148;28;20093;-69
2023/08/29 11:36:07;;;;;;;2.38;0.57;;;20.20;84.70;;;;;;5020451;28;20147;-69
2023/08/29 11:38:33;;;;;;;;;;;20.20;83.70;;;;;;5038238;28;20041;-69
2023/08/29 11:41:00;;;;;;;1.15;0.50;;;20.10;83.70;;;;;;5034454;28;19950;-69
2023/08/29 11:43:27;;;;;;;0.73;0.55;;;20.20;84.30;;;;;;5037698;28;20421;-69
2023/08/29 11:45:57;;;;;;;1.20;0.50;;;20.30;81.40;;;;;;5008439;28;20638;-70
2023/08/29 11:48:24;;;;;;;;;;;20.50;79.10;;;;;;5036807;28;20037;-70
2023/08/29 11:50:52;;;;;;;1.83;0.70;;;20.50;82.90;;;;;;5045261;28;19963;-69
2023/08/29 11:53:22;;;;;;;1.48;0.50;;;20.40;81.50;;;;;;5030177;28;20057;-69
2023/08/29 11:55:47;;;;;;;1.75;0.60;;;20.40;81.10;;;;;;5046527;28;20068;-69
2023/08/29 11:58:13;;;;;;;2.13;0.60;;;20.50;81.80;;;;;;5048865;28;20038;-71
2023/08/29 12:00:39;;;;;;;1.40;0.60;;;20.50;81.20;;;;;;5028663;28;20041;-69
2023/08/29 12:03:05;;;;;;;3.38;0.55;;;20.50;81.30;;;;;;5042979;28;20426;-69
2023/08/29 12:05:31;;;;;;;2.10;0.80;;;20.70;80.70;;;;;;5044078;28;20048;-70
2023/08/29 12:07:56;;;;;;;1.05;0.70;;;20.70;79.50;;;;;;5042568;28;20474;-69
2023/08/29 12:10:23;;;;;;;1.17;0.70;;;20.70;78.30;;;;;;5027874;28;20087;-69
2023/08/29 12:12:48;;;;;;;0.73;0.52;;;20.70;78.10;;;;;;5037630;28;20092;-69
2023/08/29 12:15:14;;;;;;;0.77;0.43;;;20.90;78.20;;;;;;5045301;28;20041;-69
2023/08/29 12:17:48;;;;;;;0.80;0.40;;;21.00;78.60;;;;;;5049721;28;20037;-69
2023/08/29 12:20:14;;;;;;;0.60;0.45;;;21.30;77.40;;;;;;5034997;28;20056;-68
2023/08/29 12:22:47;;;;;;;1.15;0.68;;;21.50;76.10;;;;;;5039828;28;20034;-69
2023/08/29 12:25:13;;;;;;;1.70;0.50;;;21.60;74.70;;;;;;5043916;28;20052;-69
2023/08/29 12:27:39;;;;;;;1.55;0.80;;;21.60;73.90;;;;;;5038480;28;20045;-69
2023/08/29 12:30:06;;;;;;;1.63;0.50;;;21.50;74.10;;;;;;5038051;28;20167;-69
2023/08/29 12:32:32;;;;;;;0.65;0.50;;;21.40;73.90;;;;;;5041349;28;20049;-69
2023/08/29 12:34:58;;;;;;;1.52;0.63;;;21.20;74.30;;;;;;5039014;28;20041;-69
2023/08/29 12:37:24;;;;;;;1.77;0.60;;;21.20;74.30;;;;;;5020849;28;20542;-68
2023/08/29 12:39:50;;;;;;;0.98;0.70;;;21.00;74.10;;;;;;5040461;28;20037;-70
2023/08/29 12:42:17;;;;;;;0.93;0.50;;;20.80;74.00;;;;;;5047519;28;20461;-69
2023/08/29 12:44:42;;;;;;;2.95;0.60;;;20.60;74.90;;;;;;5029733;28;20045;-69
2023/08/29 12:47:08;;;;;;;1.00;0.70;;;20.40;76.50;;;;;;5051206;28;20067;-69